createdAt,value
2023-12-26T00:02:29.512Z,1.40
2023-12-26T00:05:31.428Z,0.80
2023-12-26T00:08:33.480Z,1.38
2023-12-26T00:11:35.323Z,0.88
2023-12-26T00:14:38.707Z,1.00
2023-12-26T00:17:40.656Z,1.33
2023-12-26T00:20:42.571Z,1.20
2023-12-26T00:23:44.408Z,2.30
2023-12-26T00:26:46.402Z,1.58
2023-12-26T00:29:49.942Z,1.40
2023-12-26T00:32:51.838Z,1.00
2023-12-26T00:35:53.760Z,1.10
2023-12-26T00:38:55.658Z,0.73
2023-12-26T00:41:57.597Z,0.80
2023-12-26T00:45:00.991Z,0.85
2023-12-26T00:48:03.015Z,0.77
2023-12-26T00:51:05.066Z,0.82
2023-12-26T00:54:07.512Z,0.90
2023-12-26T00:57:09.402Z,1.10
2023-12-26T01:00:13.635Z,1.10
2023-12-26T01:03:15.648Z,0.85
2023-12-26T01:06:17.717Z,0.93
2023-12-26T01:09:19.635Z,1.05
2023-12-26T01:12:21.602Z,0.90
2023-12-26T01:15:24.763Z,0.90
2023-12-26T01:18:26.689Z,0.73
2023-12-26T01:21:28.614Z,0.77
2023-12-26T01:24:30.529Z,0.93
2023-12-26T01:27:32.377Z,0.60
2023-12-26T01:30:35.735Z,0.90
2023-12-26T01:33:37.788Z,0.90
2023-12-26T01:36:39.758Z,0.45
2023-12-26T01:39:41.706Z,0.75
2023-12-26T01:42:43.890Z,0.70
2023-12-26T01:45:47.023Z,0.57
2023-12-26T01:48:53.896Z,0.75
2023-12-26T01:51:56.434Z,0.80
2023-12-26T01:55:00.391Z,0.60
2023-12-26T01:58:02.289Z,0.65
2023-12-26T02:01:06.654Z,1.05
2023-12-26T02:04:08.631Z,0.80
2023-12-26T02:07:10.446Z,0.75
2023-12-26T02:10:12.221Z,0.60
2023-12-26T02:13:14.113Z,0.90
2023-12-26T02:16:20.511Z,0.90
2023-12-26T02:19:22.576Z,0.98
2023-12-26T02:22:24.448Z,0.88
2023-12-26T02:25:27.915Z,1.00
2023-12-26T02:28:30.705Z,0.98
2023-12-26T02:31:33.304Z,0.90
2023-12-26T02:34:35.562Z,1.95
2023-12-26T02:37:38.382Z,0.85
2023-12-26T02:40:41.633Z,0.95
2023-12-26T02:43:43.538Z,1.27
2023-12-26T02:46:45.340Z,0.90
2023-12-26T02:49:47.149Z,1.73
2023-12-26T02:52:48.987Z,1.90
2023-12-26T02:55:52.494Z,1.73
2023-12-26T02:58:54.333Z,1.98
2023-12-26T03:01:56.105Z,1.77
2023-12-26T03:04:58.025Z,1.20
2023-12-26T03:07:59.824Z,1.08
2023-12-26T03:11:03.013Z,1.50
2023-12-26T03:14:04.830Z,1.83
2023-12-26T03:17:06.698Z,1.23
2023-12-26T03:20:08.859Z,1.00
2023-12-26T03:23:10.603Z,0.90
2023-12-26T03:26:14.018Z,0.90
2023-12-26T03:29:15.898Z,0.68
2023-12-26T03:32:18.244Z,0.98
2023-12-26T03:35:20.272Z,0.82
2023-12-26T03:38:22.193Z,0.70
2023-12-26T03:41:25.601Z,0.60
2023-12-26T03:44:27.554Z,0.70
2023-12-26T03:47:29.560Z,0.60
2023-12-26T03:50:31.400Z,0.70
2023-12-26T03:53:33.154Z,1.00
2023-12-26T03:56:36.879Z,0.77
2023-12-26T03:59:38.861Z,1.00
2023-12-26T04:02:41.146Z,0.90
2023-12-26T04:05:43.128Z,0.77
2023-12-26T04:08:45.013Z,1.02
2023-12-26T04:11:48.215Z,1.20
2023-12-26T04:14:50.091Z,1.00
2023-12-26T04:17:51.975Z,1.00
2023-12-26T04:20:53.839Z,1.00
2023-12-26T04:23:55.673Z,1.20
2023-12-26T04:26:58.897Z,1.30
2023-12-26T04:30:00.798Z,1.20
2023-12-26T04:33:02.754Z,0.95
2023-12-26T04:36:04.934Z,1.30
2023-12-26T04:39:06.826Z,1.00
2023-12-26T04:42:10.057Z,1.10
2023-12-26T04:45:12.385Z,1.10
2023-12-26T04:48:14.277Z,1.10
2023-12-26T04:51:16.820Z,1.20
2023-12-26T04:54:18.734Z,1.70
2023-12-26T04:57:21.966Z,2.00
2023-12-26T05:00:23.743Z,1.33
2023-12-26T05:03:25.762Z,0.98
2023-12-26T05:06:27.883Z,1.05
2023-12-26T05:09:29.798Z,1.70
2023-12-26T05:12:32.949Z,1.50
2023-12-26T05:15:36.224Z,2.55
2023-12-26T05:18:38.162Z,1.50
2023-12-26T05:21:40.052Z,1.85
2023-12-26T05:24:50.645Z,1.92
2023-12-26T05:27:54.920Z,1.40
2023-12-26T05:30:56.808Z,0.80
2023-12-26T05:33:59.568Z,1.00
2023-12-26T05:37:01.533Z,1.00
2023-12-26T05:40:03.844Z,0.82
2023-12-26T05:43:07.013Z,0.98
2023-12-26T05:46:08.764Z,0.93
2023-12-26T05:49:10.767Z,1.10
2023-12-26T05:52:12.809Z,1.35
2023-12-26T05:55:14.708Z,1.20
2023-12-26T05:58:17.943Z,1.83
2023-12-26T06:01:19.716Z,1.65
2023-12-26T06:04:21.532Z,1.80
2023-12-26T06:07:23.322Z,1.67
2023-12-26T06:10:25.353Z,1.20
2023-12-26T06:13:28.505Z,1.30
2023-12-26T06:16:30.290Z,1.25
2023-12-26T06:19:32.189Z,1.10
2023-12-26T06:22:34.028Z,1.10
2023-12-26T06:25:35.835Z,1.52
2023-12-26T06:28:38.983Z,1.23
2023-12-26T06:31:40.800Z,1.20
2023-12-26T06:34:42.600Z,1.30
2023-12-26T06:37:44.427Z,1.50
2023-12-26T06:40:46.230Z,1.30
2023-12-26T06:43:49.383Z,1.30
2023-12-26T06:46:51.143Z,1.30
2023-12-26T06:49:52.919Z,1.10
2023-12-26T06:52:54.855Z,1.20
2023-12-26T06:55:56.737Z,1.08
2023-12-26T06:58:59.957Z,1.40
2023-12-26T07:02:01.771Z,1.20
2023-12-26T07:05:03.819Z,1.05
2023-12-26T07:08:06.877Z,1.67
2023-12-26T07:11:08.700Z,1.23
2023-12-26T07:14:11.990Z,1.10
2023-12-26T07:17:13.816Z,1.60
2023-12-26T07:20:15.727Z,1.10
2023-12-26T07:23:17.492Z,1.48
2023-12-26T07:26:19.243Z,1.40
2023-12-26T07:29:22.465Z,1.52
2023-12-26T07:32:24.319Z,1.08
2023-12-26T07:35:26.116Z,1.10
2023-12-26T07:38:27.938Z,1.17
2023-12-26T07:41:29.698Z,1.13
2023-12-26T07:44:33.019Z,1.20
2023-12-26T07:47:34.852Z,1.63
2023-12-26T07:50:36.672Z,1.00
2023-12-26T07:53:38.481Z,1.58
2023-12-26T07:56:40.230Z,1.20
2023-12-26T07:59:43.447Z,1.33
2023-12-26T08:02:45.229Z,1.27
2023-12-26T08:05:47.054Z,1.50
2023-12-26T08:08:48.819Z,1.40
2023-12-26T08:11:50.679Z,1.20
2023-12-26T08:14:53.959Z,1.63
2023-12-26T08:17:55.906Z,1.35
2023-12-26T08:20:57.844Z,1.50
2023-12-26T08:23:59.643Z,1.42
2023-12-26T08:27:01.496Z,1.40
2023-12-26T08:30:05.775Z,1.17
2023-12-26T08:33:07.869Z,1.40
2023-12-26T08:36:09.735Z,1.25
2023-12-26T08:39:11.574Z,1.55
2023-12-26T08:42:13.432Z,1.30
2023-12-26T08:45:16.680Z,1.30
2023-12-26T08:48:18.741Z,1.17
2023-12-26T08:51:20.691Z,1.20
2023-12-26T08:54:23.081Z,1.33
2023-12-26T08:57:25.350Z,1.30
2023-12-26T09:00:28.554Z,1.30
2023-12-26T09:03:32.754Z,1.40
2023-12-26T09:06:36.056Z,1.20
2023-12-26T09:09:38.118Z,1.40
2023-12-26T09:12:39.917Z,1.20
2023-12-26T09:15:43.113Z,1.15
2023-12-26T09:18:44.987Z,1.63
2023-12-26T09:21:46.817Z,1.10
2023-12-26T09:24:48.566Z,1.17
2023-12-26T09:27:50.355Z,1.15
2023-12-26T09:30:53.608Z,1.40
2023-12-26T09:33:55.545Z,1.23
2023-12-26T09:36:57.396Z,1.25
2023-12-26T09:39:59.194Z,1.30
2023-12-26T09:43:04.271Z,1.20
2023-12-26T09:46:07.971Z,1.20
2023-12-26T09:49:15.854Z,1.50
2023-12-26T09:52:19.155Z,1.33
2023-12-26T09:55:21.500Z,1.55
2023-12-26T09:58:23.349Z,1.35
2023-12-26T10:01:26.612Z,1.33
2023-12-26T10:04:28.453Z,1.55
2023-12-26T10:07:30.943Z,1.52
2023-12-26T10:10:34.391Z,1.58
2023-12-26T10:13:44.176Z,1.83
2023-12-26T10:16:48.990Z,1.55
2023-12-26T10:19:50.855Z,1.83
2023-12-26T10:22:52.683Z,1.83
2023-12-26T10:25:54.547Z,1.40
2023-12-26T10:28:56.705Z,1.30
2023-12-26T10:32:01.463Z,1.17
2023-12-26T10:35:16.211Z,1.25
2023-12-26T10:38:17.972Z,1.30
2023-12-26T10:41:22.834Z,1.20
2023-12-26T10:44:28.976Z,1.17
2023-12-26T10:47:32.835Z,1.00
2023-12-26T10:50:35.459Z,0.93
2023-12-26T10:53:42.619Z,0.98
2023-12-26T10:56:45.659Z,1.05
2023-12-26T11:00:24.859Z,0.95
2023-12-26T11:04:04.349Z,1.10
2023-12-26T11:07:43.585Z,0.90
2023-12-26T11:11:22.571Z,1.70
2023-12-26T11:15:01.613Z,1.00
2023-12-26T11:18:40.590Z,0.98
2023-12-26T11:22:19.981Z,1.38
2023-12-26T11:25:59.066Z,1.30
2023-12-26T11:29:38.291Z,0.90
2023-12-26T11:33:17.441Z,1.20
2023-12-26T11:36:56.837Z,1.38
2023-12-26T11:40:36.066Z,1.08
2023-12-26T11:44:15.206Z,0.88
2023-12-26T11:47:54.471Z,0.90
2023-12-26T11:51:33.879Z,1.20
2023-12-26T11:55:13.134Z,1.10
2023-12-26T11:58:52.483Z,1.15
2023-12-26T12:02:31.474Z,1.10
2023-12-26T12:06:10.457Z,1.13
2023-12-26T12:09:49.700Z,0.80
2023-12-26T12:13:28.764Z,1.00
2023-12-26T12:17:07.758Z,1.55
2023-12-26T12:20:47.074Z,1.05
2023-12-26T12:24:26.369Z,0.90
2023-12-26T12:28:05.374Z,1.23
2023-12-26T12:31:44.387Z,1.05
2023-12-26T12:35:23.269Z,1.10
2023-12-26T12:39:02.129Z,0.90
2023-12-26T12:42:41.480Z,1.60
2023-12-26T12:46:20.390Z,1.30
2023-12-26T12:49:59.338Z,1.52
2023-12-26T12:53:38.470Z,0.98
2023-12-26T12:57:17.409Z,1.10
2023-12-26T13:00:56.596Z,0.70
2023-12-26T13:04:35.558Z,0.90
2023-12-26T13:08:14.725Z,0.82
2023-12-26T13:11:53.637Z,1.00
2023-12-26T13:15:32.903Z,1.40
2023-12-26T13:19:11.990Z,1.05
2023-12-26T13:22:51.320Z,0.90
2023-12-26T13:26:30.580Z,1.15
2023-12-26T13:30:09.635Z,1.30
2023-12-26T13:33:48.603Z,1.60
2023-12-26T13:37:27.894Z,1.00
2023-12-26T13:41:07.174Z,1.10
2023-12-26T13:44:47.110Z,1.08
2023-12-26T13:48:26.605Z,1.40
2023-12-26T13:52:05.856Z,0.98
2023-12-26T13:55:45.265Z,1.10
2023-12-26T13:59:24.186Z,1.55
2023-12-26T14:03:03.257Z,1.35
2023-12-26T14:06:42.278Z,1.00
2023-12-26T14:10:22.977Z,1.30
2023-12-26T14:14:05.492Z,1.40
2023-12-26T14:17:44.752Z,1.30
2023-12-26T14:21:23.931Z,1.13
2023-12-26T14:25:02.728Z,1.08
2023-12-26T14:28:41.526Z,1.33
2023-12-26T14:32:20.455Z,1.00
2023-12-26T14:35:59.367Z,1.38
2023-12-26T14:39:38.676Z,1.00
2023-12-26T14:43:17.739Z,1.20
2023-12-26T14:46:56.499Z,1.15
2023-12-26T14:50:35.251Z,0.80
2023-12-26T14:54:14.308Z,1.30
2023-12-26T14:57:53.257Z,1.17
2023-12-26T15:01:32.188Z,1.13
2023-12-26T15:04:35.542Z,1.30
2023-12-26T15:07:38.201Z,1.30
2023-12-26T15:10:39.967Z,1.27
2023-12-26T15:13:46.157Z,1.25
2023-12-26T15:16:50.488Z,1.33
2023-12-26T15:19:53.901Z,1.27
2023-12-26T15:22:55.970Z,1.10
2023-12-26T15:25:57.943Z,1.30
2023-12-26T15:28:59.736Z,1.00
2023-12-26T15:32:01.774Z,1.10
2023-12-26T15:35:06.373Z,1.67
2023-12-26T15:38:08.328Z,1.67
2023-12-26T15:41:10.067Z,1.40
2023-12-26T15:44:11.827Z,1.27
2023-12-26T15:47:13.547Z,1.10
2023-12-26T15:50:16.722Z,1.20
2023-12-26T15:53:18.491Z,1.13
2023-12-26T15:56:22.007Z,1.00
2023-12-26T15:59:23.759Z,1.40
2023-12-26T16:02:25.532Z,0.70
2023-12-26T16:05:28.661Z,1.13
2023-12-26T16:08:30.680Z,1.10
2023-12-26T16:11:32.450Z,0.85
2023-12-26T16:14:34.255Z,1.08
2023-12-26T16:17:36.060Z,0.90
2023-12-26T16:20:39.461Z,1.20
2023-12-26T16:23:41.228Z,1.05
2023-12-26T16:26:43.055Z,1.10
2023-12-26T16:29:44.884Z,1.00
2023-12-26T16:32:46.799Z,1.20
2023-12-26T16:35:50.096Z,1.17
2023-12-26T16:38:51.948Z,1.20
2023-12-26T16:42:01.555Z,1.17
2023-12-26T16:45:03.860Z,0.93
2023-12-26T16:48:06.768Z,0.82
2023-12-26T16:51:10.188Z,1.00
2023-12-26T16:54:12.027Z,0.90
2023-12-26T16:57:13.859Z,1.10
2023-12-26T17:00:16.500Z,1.25
2023-12-26T17:03:18.328Z,0.98
2023-12-26T17:06:21.553Z,1.35
2023-12-26T17:09:23.598Z,1.27
2023-12-26T17:12:25.595Z,1.00
2023-12-26T17:15:27.608Z,1.00
2023-12-26T17:18:29.742Z,1.00
2023-12-26T17:21:33.105Z,1.45
2023-12-26T17:24:35.053Z,1.45
2023-12-26T17:27:37.288Z,1.60
2023-12-26T17:30:39.254Z,1.52
2023-12-26T17:33:41.298Z,1.42
2023-12-26T17:36:44.519Z,1.40
2023-12-26T17:39:46.343Z,1.02
2023-12-26T17:42:48.409Z,1.00
2023-12-26T17:45:50.216Z,1.30
2023-12-26T17:48:52.102Z,1.30
2023-12-26T17:51:55.426Z,1.10
2023-12-26T17:54:57.217Z,1.40
2023-12-26T17:57:59.211Z,3.75
2023-12-26T18:01:01.232Z,1.10
2023-12-26T18:04:03.165Z,1.40
2023-12-26T18:07:06.454Z,1.92
2023-12-26T18:10:09.152Z,1.20
2023-12-26T18:13:10.935Z,1.00
2023-12-26T18:16:12.755Z,1.33
2023-12-26T18:19:14.629Z,1.33
2023-12-26T18:22:18.008Z,1.42
2023-12-26T18:25:20.463Z,1.08
2023-12-26T18:28:23.343Z,1.48
2023-12-26T18:31:25.809Z,1.40
2023-12-26T18:34:28.158Z,1.25
2023-12-26T18:37:31.444Z,1.38
2023-12-26T18:40:33.491Z,1.40
2023-12-26T18:43:35.262Z,1.40
2023-12-26T18:46:37.192Z,1.08
2023-12-26T18:49:39.193Z,1.23
2023-12-26T18:52:42.443Z,1.35
2023-12-26T18:55:44.288Z,1.30
2023-12-26T18:58:47.529Z,1.17
2023-12-26T19:01:49.436Z,1.40
2023-12-26T19:04:51.282Z,1.60
2023-12-26T19:07:54.648Z,2.10
2023-12-26T19:10:56.634Z,1.73
2023-12-26T19:13:58.477Z,1.40
2023-12-26T19:17:00.305Z,1.80
2023-12-26T19:20:02.308Z,1.77
2023-12-26T19:23:05.692Z,1.48
2023-12-26T19:26:07.574Z,1.65
2023-12-26T19:29:09.463Z,1.65
2023-12-26T19:32:11.288Z,1.60
2023-12-26T19:35:15.051Z,1.67
2023-12-26T19:38:18.483Z,1.88
2023-12-26T19:41:20.878Z,1.50
2023-12-26T19:44:23.863Z,1.33
2023-12-26T19:47:27.150Z,1.92
2023-12-26T19:50:29.587Z,1.67
2023-12-26T19:53:33.763Z,1.63
2023-12-26T19:56:40.118Z,1.80
2023-12-26T19:59:42.598Z,1.83
2023-12-26T20:02:45.750Z,1.70
2023-12-26T20:05:48.293Z,1.90
2023-12-26T20:08:51.795Z,1.73
2023-12-26T20:11:54.311Z,1.67
2023-12-26T20:14:57.346Z,1.60
2023-12-26T20:18:00.543Z,1.70
2023-12-26T20:21:05.066Z,1.80
2023-12-26T20:24:10.626Z,1.80
2023-12-26T20:27:13.862Z,1.70
2023-12-26T20:30:17.143Z,1.80
2023-12-26T20:33:20.552Z,1.90
2023-12-26T20:36:24.125Z,1.88
2023-12-26T20:39:28.812Z,1.55
2023-12-26T20:42:32.215Z,1.70
2023-12-26T20:45:36.376Z,1.73
2023-12-26T20:48:40.116Z,1.80
2023-12-26T20:51:45.063Z,1.50
2023-12-26T20:54:50.369Z,1.90
2023-12-26T20:57:54.200Z,1.48
2023-12-26T21:00:56.431Z,1.60
2023-12-26T21:03:58.488Z,1.98
2023-12-26T21:07:00.455Z,2.00
2023-12-26T21:10:04.189Z,1.80
2023-12-26T21:13:06.066Z,1.92
2023-12-26T21:16:14.368Z,1.67
2023-12-26T21:19:16.293Z,1.92
2023-12-26T21:22:18.098Z,1.73
2023-12-26T21:25:21.290Z,2.05
2023-12-26T21:28:23.002Z,2.60
2023-12-26T21:31:25.312Z,1.95
2023-12-26T21:34:27.223Z,1.98
2023-12-26T21:37:29.071Z,2.03
2023-12-26T21:40:32.187Z,2.45
2023-12-26T21:43:33.949Z,2.10
2023-12-26T21:46:35.743Z,2.10
2023-12-26T21:49:37.797Z,2.15
2023-12-26T21:52:39.679Z,2.22
2023-12-26T21:55:42.838Z,1.98
2023-12-26T21:58:45.543Z,1.90
2023-12-26T22:01:47.317Z,1.90
2023-12-26T22:04:49.052Z,2.00
2023-12-26T22:07:50.791Z,1.80
2023-12-26T22:10:54.794Z,2.33
2023-12-26T22:13:56.880Z,2.28
2023-12-26T22:16:58.577Z,2.05
2023-12-26T22:20:00.422Z,2.08
2023-12-26T22:23:02.227Z,2.25
2023-12-26T22:26:05.408Z,1.98
2023-12-26T22:29:07.122Z,2.65
2023-12-26T22:32:08.881Z,2.20
2023-12-26T22:35:10.784Z,2.20
2023-12-26T22:38:12.586Z,2.25
2023-12-26T22:41:21.064Z,2.10
2023-12-26T22:44:22.797Z,1.97
2023-12-26T22:47:24.551Z,2.05
2023-12-26T22:50:26.307Z,2.10
2023-12-26T22:53:28.421Z,2.08
2023-12-26T22:56:31.531Z,2.30
2023-12-26T22:59:33.263Z,1.48
2023-12-26T23:02:35.021Z,1.95
2023-12-26T23:05:36.786Z,2.05
2023-12-26T23:08:38.544Z,2.17
2023-12-26T23:11:41.877Z,1.98
2023-12-26T23:14:43.613Z,1.75
2023-12-26T23:17:45.403Z,2.17
2023-12-26T23:20:47.241Z,1.98
2023-12-26T23:23:48.965Z,2.03
2023-12-26T23:26:52.090Z,1.58
2023-12-26T23:29:53.886Z,1.95
2023-12-26T23:32:55.737Z,1.85
2023-12-26T23:35:57.594Z,1.77
2023-12-26T23:38:59.386Z,1.95
2023-12-26T23:42:02.611Z,2.00
2023-12-26T23:45:04.869Z,1.83
2023-12-26T23:48:07.577Z,1.67
2023-12-26T23:51:09.464Z,1.92
2023-12-26T23:54:11.249Z,1.55
2023-12-26T23:57:14.523Z,2.08
